createdAt,value
2023-04-08T00:00:13.273Z,102210.03
2023-04-08T00:04:15.766Z,102209.19
2023-04-08T00:08:17.657Z,102210.03
2023-04-08T00:12:19.926Z,102210.03
2023-04-08T00:16:22.852Z,102209.19
2023-04-08T00:20:24.886Z,102217.28
2023-04-08T00:24:26.718Z,102213.88
2023-04-08T00:28:28.531Z,102212.19
2023-04-08T00:32:30.569Z,102216.81
2023-04-08T00:36:32.719Z,102216.06
2023-04-08T00:40:35.141Z,102216.91
2023-04-08T00:44:37.040Z,102212.66
2023-04-08T00:48:38.947Z,102216.41
2023-04-08T00:52:41.066Z,102218.31
2023-04-08T00:56:45.085Z,102222.91
2023-04-08T01:00:58.643Z,102217.59
2023-04-08T01:05:15.864Z,102219.28
2023-04-08T01:09:21.642Z,102222.06
2023-04-08T01:13:25.344Z,102221.94
2023-04-08T01:17:28.082Z,102227.41
2023-04-08T01:21:30.569Z,102228.56
2023-04-08T01:25:36.878Z,102227.84
2023-04-08T01:29:39.453Z,102222.75
2023-04-08T01:33:42.068Z,102222.75
2023-04-08T01:37:47.093Z,102228.91
2023-04-08T01:41:51.328Z,102228.91
2023-04-08T01:45:58.576Z,102229.75
2023-04-08T01:50:02.102Z,102234.34
2023-04-08T01:54:03.878Z,102244.25
2023-04-08T01:58:09.202Z,102237.25
2023-04-08T02:02:12.631Z,102232.13
2023-04-08T02:06:14.759Z,102235.16
2023-04-08T02:10:16.690Z,102239.84
2023-04-08T02:14:18.741Z,102240.06
2023-04-08T02:18:28.316Z,102244.53
2023-04-08T02:22:46.195Z,102251.66
2023-04-08T02:26:51.211Z,102241.25
2023-04-08T02:30:54.827Z,102253.78
2023-04-08T02:34:58.314Z,102255.84
2023-04-08T02:39:00.592Z,102256.69
2023-04-08T02:43:02.848Z,102250.63
2023-04-08T02:47:05.299Z,102252.66
2023-04-08T02:51:10.149Z,102253.72
2023-04-08T02:55:12.158Z,102249.59
2023-04-08T02:59:14.417Z,102258.66
2023-04-08T03:03:16.559Z,102263.97
2023-04-08T03:07:18.415Z,102259.72
2023-04-08T03:11:21.383Z,102261.63
2023-04-08T03:15:23.276Z,102270.34
2023-04-08T03:19:25.095Z,102260.56
2023-04-08T03:23:26.954Z,102268.44
2023-04-08T03:27:28.952Z,102258.66
2023-04-08T03:31:30.896Z,102266.84
2023-04-08T03:35:33.543Z,102271.53
2023-04-08T03:39:35.406Z,102273.69
2023-04-08T03:43:38.136Z,102279.94
2023-04-08T03:47:40.074Z,102276.53
2023-04-08T03:51:41.961Z,102280.13
2023-04-08T03:55:43.758Z,102295.50
2023-04-08T03:59:45.745Z,102295.69
2023-04-08T04:03:47.671Z,102296.53
2023-04-08T04:07:49.545Z,102294.59
2023-04-08T04:11:51.488Z,102287.50
2023-04-08T04:15:53.368Z,102299.94
2023-04-08T04:19:55.270Z,102300.03
2023-04-08T04:23:57.117Z,102297.38
2023-04-08T04:27:58.981Z,102306.72
2023-04-08T04:32:01.047Z,102315.03
2023-04-08T04:36:02.909Z,102316.97
2023-04-08T04:40:05.958Z,102323.13
2023-04-08T04:44:07.843Z,102319.91
2023-04-08T04:48:09.637Z,102323.03
2023-04-08T04:52:11.660Z,102327.78
2023-04-08T04:56:13.544Z,102329.72
2023-04-08T05:00:16.563Z,102330.56
2023-04-08T05:04:18.377Z,102336.50
2023-04-08T05:08:21.367Z,102331.84
2023-04-08T05:12:23.251Z,102341.28
2023-04-08T05:16:25.236Z,102341.81
2023-04-08T05:20:27.073Z,102351.06
2023-04-08T05:24:28.894Z,102357.34
2023-04-08T05:28:30.968Z,102359.03
2023-04-08T05:32:32.913Z,102364.75
2023-04-08T05:36:34.879Z,102371.97
2023-04-08T05:40:36.779Z,102368.16
2023-04-08T05:44:38.970Z,102365.03
2023-04-08T05:48:40.778Z,102373.75
2023-04-08T05:52:46.090Z,102365.78
2023-04-08T05:56:49.098Z,102375.34
2023-04-08T06:00:51.173Z,102376.31
2023-04-08T06:04:53.071Z,102383.00
2023-04-08T06:08:54.885Z,102391.53
2023-04-08T06:12:56.692Z,102393.03
2023-04-08T06:16:58.716Z,102395.25
2023-04-08T06:21:00.689Z,102400.38
2023-04-08T06:25:03.140Z,102410.66
2023-04-08T06:29:05.272Z,102408.78
2023-04-08T06:33:07.448Z,102408.13
2023-04-08T06:37:09.341Z,102411.56
2023-04-08T06:41:11.132Z,102427.25
2023-04-08T06:45:13.054Z,102434.31
2023-04-08T06:49:14.872Z,102433.00
2023-04-08T06:53:16.666Z,102433.19
2023-04-08T06:57:18.512Z,102440.84
2023-04-08T07:01:20.852Z,102450.84
2023-04-08T07:05:22.673Z,102461.47
2023-04-08T07:09:24.489Z,102470.94
2023-04-08T07:13:26.330Z,102462.03
2023-04-08T07:17:28.318Z,102465.03
2023-04-08T07:21:31.374Z,102470.13
2023-04-08T07:25:35.384Z,102473.41
2023-04-08T07:29:37.154Z,102485.97
2023-04-08T07:33:38.963Z,102477.91
2023-04-08T07:37:40.792Z,102482.91
2023-04-08T07:41:42.572Z,102488.03
2023-04-08T07:45:44.417Z,102494.31
2023-04-08T07:49:47.180Z,102485.81
2023-04-08T07:53:49.216Z,102491.53
2023-04-08T07:57:50.998Z,102503.47
2023-04-08T08:01:52.824Z,102496.38
2023-04-08T08:05:54.616Z,102500.31
2023-04-08T08:09:56.492Z,102505.91
2023-04-08T08:13:58.343Z,102504.00
2023-04-08T08:18:00.611Z,102508.97
2023-04-08T08:22:02.478Z,102516.66
2023-04-08T08:26:07.104Z,102521.50
2023-04-08T08:30:09.518Z,102530.91
2023-04-08T08:34:11.413Z,102522.81
2023-04-08T08:38:14.183Z,102521.00
2023-04-08T08:42:26.641Z,102523.06
2023-04-08T08:46:28.528Z,102528.88
2023-04-08T08:50:30.602Z,102530.69
2023-04-08T08:54:32.811Z,102527.09
2023-04-08T08:58:35.017Z,102528.16
2023-04-08T09:02:36.983Z,102532.63
2023-04-08T09:06:39.090Z,102523.47
2023-04-08T09:10:40.941Z,102535.59
2023-04-08T09:14:43.273Z,102533.44
2023-04-08T09:18:49.323Z,102533.91
2023-04-08T09:22:54.213Z,102536.88
2023-04-08T09:26:56.769Z,102531.97
2023-04-08T09:30:58.965Z,102532.88
2023-04-08T09:35:00.930Z,102532.31
2023-04-08T09:39:02.762Z,102530.75
2023-04-08T09:43:06.642Z,102534.72
2023-04-08T09:47:25.027Z,102539.34
2023-04-08T09:51:33.403Z,102540.50
2023-04-08T09:55:36.428Z,102546.72
2023-04-08T09:59:39.668Z,102545.78
2023-04-08T10:03:50.269Z,102538.66
2023-04-08T10:07:52.848Z,102537.94
2023-04-08T10:11:55.579Z,102540.63
2023-04-08T10:16:26.050Z,102538.84
2023-04-08T10:20:36.932Z,102541.75
2023-04-08T10:24:38.763Z,102537.75
2023-04-08T10:28:40.735Z,102545.25
2023-04-08T10:32:42.685Z,102538.13
2023-04-08T10:36:48.214Z,102531.22
2023-04-08T10:40:50.158Z,102531.59
2023-04-08T10:44:52.311Z,102529.00
2023-04-08T10:49:03.939Z,102527.16
2023-04-08T10:53:06.743Z,102527.66
2023-04-08T10:57:08.660Z,102529.56
2023-04-08T11:01:10.600Z,102531.50
2023-04-08T11:05:12.564Z,102534.25
2023-04-08T11:09:16.763Z,102532.16
2023-04-08T11:13:19.102Z,102541.16
2023-04-08T11:17:21.776Z,102541.03
2023-04-08T11:21:25.739Z,102529.34
2023-04-08T11:25:28.749Z,102538.25
2023-04-08T11:29:31.042Z,102529.94
2023-04-08T11:33:33.371Z,102520.72
2023-04-08T11:37:42.268Z,102527.22
2023-04-08T11:41:44.786Z,102521.63
2023-04-08T11:45:46.653Z,102524.63
2023-04-08T11:49:48.820Z,102526.06
2023-04-08T11:53:54.638Z,102528.84
2023-04-08T11:58:03.537Z,102525.91
2023-04-08T12:02:05.531Z,102526.59
2023-04-08T12:06:08.995Z,102528.97
2023-04-08T12:10:12.389Z,102523.53
2023-04-08T12:14:14.821Z,102526.47
2023-04-08T12:18:16.760Z,102526.38
2023-04-08T12:22:18.571Z,102522.56
2023-04-08T12:26:20.459Z,102517.78
2023-04-08T12:30:22.526Z,102517.16
2023-04-08T12:34:24.975Z,102513.94
2023-04-08T12:38:27.299Z,102518.06
2023-04-08T12:42:29.361Z,102523.41
2023-04-08T12:46:31.493Z,102525.84
2023-04-08T12:50:33.277Z,102525.00
2023-04-08T12:54:35.208Z,102520.25
2023-04-08T12:58:37.451Z,102519.25
2023-04-08T13:02:39.379Z,102515.72
2023-04-08T13:06:41.336Z,102525.19
2023-04-08T13:10:43.765Z,102512.53
2023-04-08T13:14:45.528Z,102514.19
2023-04-08T13:18:47.748Z,102511.00
2023-04-08T13:22:49.514Z,102509.31
2023-04-08T13:26:51.951Z,102514.94
2023-04-08T13:30:54.335Z,102513.16
2023-04-08T13:34:56.453Z,102502.59
2023-04-08T13:38:58.687Z,102501.75
2023-04-08T13:43:00.649Z,102502.63
2023-04-08T13:47:02.814Z,102503.50
2023-04-08T13:51:04.683Z,102509.44
2023-04-08T13:55:06.999Z,102509.16
2023-04-08T13:59:10.446Z,102501.41
2023-04-08T14:03:12.273Z,102499.72
2023-04-08T14:07:14.586Z,102495.59
2023-04-08T14:11:16.532Z,102494.16
2023-04-08T14:15:18.428Z,102481.41
2023-04-08T14:19:20.458Z,102480.19
2023-04-08T14:23:22.269Z,102484.56
2023-04-08T14:27:24.055Z,102494.31
2023-04-08T14:31:26.092Z,102494.31
2023-04-08T14:35:28.026Z,102490.53
2023-04-08T14:39:29.886Z,102490.81
2023-04-08T14:43:31.667Z,102495.63
2023-04-08T14:47:33.581Z,102491.94
2023-04-08T14:51:38.014Z,102501.69
2023-04-08T14:55:39.970Z,102495.31
2023-04-08T14:59:41.759Z,102494.44
2023-04-08T15:03:43.676Z,102499.53
2023-04-08T15:07:47.433Z,102490.34
2023-04-08T15:11:49.289Z,102492.16
2023-04-08T15:15:53.962Z,102483.41
2023-04-08T15:19:55.866Z,102483.97
2023-04-08T15:23:57.911Z,102496.72
2023-04-08T15:27:59.822Z,102491.94
2023-04-08T15:32:01.748Z,102488.41
2023-04-08T15:36:04.334Z,102495.19
2023-04-08T15:40:07.081Z,102494.75
2023-04-08T15:44:08.956Z,102494.34
2023-04-08T15:48:13.554Z,102487.69
2023-04-08T15:52:15.463Z,102486.50
2023-04-08T15:56:18.278Z,102484.25
2023-04-08T16:00:20.244Z,102496.66
2023-04-08T16:04:23.221Z,102490.16
2023-04-08T16:08:25.734Z,102483.94
2023-04-08T16:12:27.594Z,102479.53
2023-04-08T16:16:30.040Z,102483.63
2023-04-08T16:20:32.267Z,102489.41
2023-04-08T16:24:36.779Z,102483.56
2023-04-08T16:28:40.041Z,102481.00
2023-04-08T16:32:42.217Z,102490.44
2023-04-08T16:36:44.049Z,102492.28
2023-04-08T16:40:45.861Z,102486.44
2023-04-08T16:44:47.807Z,102484.16
2023-04-08T16:48:49.612Z,102490.63
2023-04-08T16:52:51.718Z,102496.94
2023-04-08T16:56:53.610Z,102490.16
2023-04-08T17:00:55.715Z,102501.69
2023-04-08T17:04:57.531Z,102491.34
2023-04-08T17:08:59.368Z,102498.09
2023-04-08T17:13:01.295Z,102483.53
2023-04-08T17:17:03.178Z,102491.38
2023-04-08T17:21:05.281Z,102495.56
2023-04-08T17:25:07.782Z,102496.59
2023-04-08T17:29:10.280Z,102489.31
2023-04-08T17:33:12.081Z,102499.22
2023-04-08T17:37:13.967Z,102497.44
2023-04-08T17:41:21.603Z,102499.31
2023-04-08T17:45:32.527Z,102503.09
2023-04-08T17:49:34.488Z,102493.19
2023-04-08T17:53:36.309Z,102497.44
2023-04-08T17:57:39.187Z,102487.38
2023-04-08T18:01:41.217Z,102500.25
2023-04-08T18:05:43.332Z,102486.66
2023-04-08T18:09:48.142Z,102496.09
2023-04-08T18:13:50.096Z,102495.75
2023-04-08T18:17:52.216Z,102501.47
2023-04-08T18:21:55.438Z,102504.38
2023-04-08T18:25:57.289Z,102511.06
2023-04-08T18:29:59.380Z,102519.41
2023-04-08T18:34:01.177Z,102521.81
2023-04-08T18:38:02.980Z,102524.00
2023-04-08T18:42:04.853Z,102533.47
2023-04-08T18:46:06.700Z,102535.88
2023-04-08T18:50:09.459Z,102534.88
2023-04-08T18:54:11.252Z,102540.66
2023-04-08T18:58:13.113Z,102543.91
2023-04-08T19:02:15.328Z,102555.91
2023-04-08T19:06:17.687Z,102550.94
2023-04-08T19:10:19.758Z,102541.56
2023-04-08T19:14:21.789Z,102550.53
2023-04-08T19:18:23.750Z,102549.06
2023-04-08T19:22:25.582Z,102551.13
2023-04-08T19:26:27.413Z,102554.00
2023-04-08T19:30:29.382Z,102557.75
2023-04-08T19:34:31.273Z,102557.88
2023-04-08T19:38:33.105Z,102557.97
2023-04-08T19:42:35.069Z,102559.91
2023-04-08T19:46:37.503Z,102560.13
2023-04-08T19:50:39.751Z,102559.50
2023-04-08T19:54:43.571Z,102563.22
2023-04-08T19:58:46.433Z,102564.34
2023-04-08T20:02:48.611Z,102562.72
2023-04-08T20:06:50.629Z,102565.75
2023-04-08T20:10:54.071Z,102564.13
2023-04-08T20:14:55.916Z,102568.75
2023-04-08T20:18:57.677Z,102570.66
2023-04-08T20:22:59.488Z,102573.31
2023-04-08T20:27:01.608Z,102569.19
2023-04-08T20:31:03.642Z,102568.56
2023-04-08T20:35:06.004Z,102571.56
2023-04-08T20:39:10.959Z,102557.69
2023-04-08T20:43:12.795Z,102570.50
2023-04-08T20:47:14.637Z,102569.03
2023-04-08T20:51:17.677Z,102562.09
2023-04-08T20:55:19.641Z,102565.84
2023-04-08T20:59:21.463Z,102559.03
2023-04-08T21:03:23.367Z,102561.94
2023-04-08T21:07:26.412Z,102559.56
2023-04-08T21:11:28.637Z,102565.88
2023-04-08T21:15:30.627Z,102563.50
2023-04-08T21:19:32.471Z,102571.56
2023-04-08T21:23:34.278Z,102560.31
2023-04-08T21:27:36.210Z,102561.47
2023-04-08T21:31:38.259Z,102558.09
2023-04-08T21:35:40.242Z,102559.25
2023-04-08T21:39:42.051Z,102548.69
2023-04-08T21:43:43.864Z,102555.13
2023-04-08T21:47:45.787Z,102556.28
2023-04-08T21:51:47.642Z,102558.31
2023-04-08T21:55:49.728Z,102547.97
2023-04-08T21:59:51.850Z,102564.16
2023-04-08T22:03:55.669Z,102556.41
2023-04-08T22:07:57.586Z,102551.28
2023-04-08T22:11:59.456Z,102554.16
2023-04-08T22:16:01.281Z,102551.81
2023-04-08T22:20:03.519Z,102562.66
2023-04-08T22:24:05.500Z,102563.72
2023-04-08T22:28:07.790Z,102558.63
2023-04-08T22:32:09.655Z,102559.69
2023-04-08T22:36:11.548Z,102559.75
2023-04-08T22:40:13.461Z,102553.72
2023-04-08T22:44:15.949Z,102552.09
2023-04-08T22:48:17.789Z,102560.28
2023-04-08T22:52:19.644Z,102556.91
2023-04-08T22:56:21.718Z,102563.25
2023-04-08T23:00:23.702Z,102563.47
2023-04-08T23:04:25.893Z,102557.31
2023-04-08T23:08:27.779Z,102548.59
2023-04-08T23:12:29.659Z,102553.25
2023-04-08T23:16:31.803Z,102549.00
2023-04-08T23:20:34.693Z,102547.38
2023-04-08T23:24:36.488Z,102549.31
2023-04-08T23:28:38.293Z,102544.06
2023-04-08T23:32:40.183Z,102543.34
2023-04-08T23:36:42.065Z,102534.72
2023-04-08T23:40:43.997Z,102542.06
2023-04-08T23:44:48.124Z,102535.13
2023-04-08T23:48:50.166Z,102536.19
2023-04-08T23:52:52.258Z,102519.59
2023-04-08T23:56:54.043Z,102513.63
